createdAt,value
2022-07-27T00:01:20.170Z,0.88715
2022-07-27T00:06:21.837Z,0
2022-07-27T00:11:23.589Z,0
2022-07-27T00:16:25.329Z,0
2022-07-27T00:21:26.933Z,0.88715
2022-07-27T00:26:28.581Z,0
2022-07-27T00:31:30.218Z,0
2022-07-27T00:36:31.713Z,0
2022-07-27T00:41:33.184Z,0.88715
2022-07-27T00:46:34.907Z,0.88715
2022-07-27T00:51:36.500Z,0
2022-07-27T00:56:38.472Z,0.88715
2022-07-27T01:01:40.017Z,0
2022-07-27T01:06:41.504Z,0
2022-07-27T01:11:43.082Z,0
2022-07-27T01:16:44.563Z,0
2022-07-27T01:21:46.033Z,0
2022-07-27T01:26:47.781Z,0
2022-07-27T01:31:49.307Z,0
2022-07-27T01:36:50.758Z,0.88715
2022-07-27T01:41:52.590Z,0.88715
2022-07-27T01:46:54.088Z,0
2022-07-27T01:51:55.616Z,0.88715
2022-07-27T01:56:58.552Z,0.88715
2022-07-27T02:02:00.206Z,0
2022-07-27T02:07:01.691Z,0
2022-07-27T02:12:03.267Z,0.88715
2022-07-27T02:17:04.812Z,0
2022-07-27T02:22:06.536Z,0.88715
2022-07-27T02:27:08.380Z,0
2022-07-27T02:32:09.806Z,0
2022-07-27T02:37:11.509Z,0
2022-07-27T02:42:13.035Z,0
2022-07-27T02:47:14.985Z,0
2022-07-27T02:52:16.429Z,0
2022-07-27T02:57:18.058Z,0
2022-07-27T03:02:19.511Z,0
2022-07-27T03:07:20.945Z,0
2022-07-27T03:12:22.455Z,0
2022-07-27T03:17:23.895Z,0
2022-07-27T03:22:25.349Z,0.88715
2022-07-27T03:27:27.279Z,0
2022-07-27T03:32:28.715Z,0
2022-07-27T03:37:30.353Z,0
2022-07-27T03:42:31.813Z,0.88715
2022-07-27T03:47:33.230Z,0
2022-07-27T03:52:34.778Z,0
2022-07-27T03:57:36.669Z,0
2022-07-27T04:02:38.277Z,0.88715
2022-07-27T04:07:39.889Z,0
2022-07-27T04:12:41.427Z,0.88715
2022-07-27T04:17:56.221Z,0.88715
2022-07-27T04:22:58.973Z,0
2022-07-27T04:28:00.842Z,0.4148
2022-07-27T04:33:02.442Z,0.9481
2022-07-27T04:38:05.923Z,2.13325
2022-07-27T04:43:07.785Z,3.3184
2022-07-27T04:48:09.464Z,6.45905
2022-07-27T04:53:11.110Z,17.6312
2022-07-27T04:58:13.249Z,23.93995
2022-07-27T05:03:14.667Z,34.6063
2022-07-27T05:08:16.108Z,59.3855
2022-07-27T05:13:17.571Z,82.3829
2022-07-27T05:18:19.247Z,103.0566
2022-07-27T05:23:20.914Z,127.0314
2022-07-27T05:28:22.946Z,129.2448
2022-07-27T05:33:24.432Z,129.81715
2022-07-27T05:38:26.086Z,141.6391
2022-07-27T05:43:27.723Z,161.4077
2022-07-27T05:48:29.275Z,173.41225
2022-07-27T05:53:30.905Z,225.5662
2022-07-27T05:58:32.646Z,258.4669
2022-07-27T06:03:34.189Z,286.5909
2022-07-27T06:08:35.713Z,357.7775
2022-07-27T06:13:37.302Z,447.0972
2022-07-27T06:18:43.499Z,493.90395
2022-07-27T06:23:44.973Z,517.73045
2022-07-27T06:28:46.725Z,548.47475
2022-07-27T06:33:48.277Z,581.8375
2022-07-27T06:38:52.727Z,500.0251
2022-07-27T06:43:54.189Z,579.9017
2022-07-27T06:48:55.672Z,632.85045
2022-07-27T06:53:57.462Z,799.92465
2022-07-27T06:58:59.532Z,721.41335
2022-07-27T07:04:01.209Z,652.12455
2022-07-27T07:09:02.711Z,603.4543
2022-07-27T07:14:04.538Z,580.7878
2022-07-27T07:19:05.969Z,551.92415
2022-07-27T07:24:07.455Z,555.03895
2022-07-27T07:29:09.589Z,848.14815
2022-07-27T07:34:11.275Z,945.6351
2022-07-27T07:39:12.995Z,993.9193
2022-07-27T07:44:14.844Z,786.3991
2022-07-27T07:49:16.761Z,818.40025
2022-07-27T07:54:18.665Z,990.99265
2022-07-27T07:59:20.648Z,659.44555
2022-07-27T08:04:22.055Z,741.1078
2022-07-27T08:09:23.467Z,865.22415
2022-07-27T08:14:25.019Z,1173.71685
2022-07-27T08:19:26.585Z,921.2534
2022-07-27T08:24:28.126Z,915.25785
2022-07-27T08:29:36.614Z,1232.78305
2022-07-27T08:34:38.787Z,1218.49095
2022-07-27T08:40:38.185Z,765.76155
2022-07-27T08:45:41.017Z,652.0277
2022-07-27T08:50:43.037Z,635.85495
2022-07-27T08:55:44.637Z,599.52385
2022-07-27T09:00:46.525Z,572.74615
2022-07-27T09:05:48.043Z,577.6883
2022-07-27T09:10:49.494Z,594.8403
2022-07-27T09:21:14.197Z,651.4229
2022-07-27T09:26:30.377Z,655.0929
2022-07-27T09:31:33.196Z,644.3035
2022-07-27T09:36:34.925Z,647.42015
2022-07-27T09:41:36.390Z,658.337
2022-07-27T09:46:40.886Z,700.97555
2022-07-27T09:52:00.474Z,751.85735
2022-07-27T09:57:02.686Z,905.4097
2022-07-27T10:02:04.459Z,937.4623
2022-07-27T10:07:09.496Z,1078.6412
2022-07-27T10:12:14.643Z,1906.07715
2022-07-27T10:17:17.491Z,1237.6529
2022-07-27T10:22:18.999Z,1228.5977
2022-07-27T10:27:20.652Z,1170.02415
2022-07-27T10:32:22.725Z,1170.4672
2022-07-27T10:37:24.273Z,1106.12055
2022-07-27T10:42:25.965Z,1048.94845
2022-07-27T10:47:27.478Z,1018.99895
2022-07-27T10:52:28.953Z,893.5706
2022-07-27T10:57:30.493Z,832.91295
2022-07-27T11:02:32.219Z,864.4692
2022-07-27T11:07:44.437Z,982.8523
2022-07-27T11:12:46.917Z,1296.23015
2022-07-27T11:17:56.768Z,932.9859
2022-07-27T11:28:33.503Z,981.94905
2022-07-27T11:33:35.146Z,1306.72295
2022-07-27T11:38:36.615Z,1533.1771
2022-07-27T11:43:38.332Z,1693.1625
2022-07-27T11:49:05.050Z,1992.70475
2022-07-27T11:54:07.929Z,2159.86655
2022-07-27T11:59:09.388Z,2254.06955
2022-07-27T12:04:11.733Z,2188.5059
2022-07-27T12:09:13.711Z,1572.91035
2022-07-27T12:14:15.445Z,1972.63585
2022-07-27T12:19:17.072Z,2215.6715
2022-07-27T12:24:18.567Z,2058.7249
2022-07-27T12:29:20.061Z,1730.48445
2022-07-27T12:34:22.494Z,1917.58585
2022-07-27T12:39:23.940Z,1989.1242
2022-07-27T12:44:25.348Z,2047.7339
2022-07-27T12:49:28.053Z,1972.8393
2022-07-27T12:54:29.696Z,1970.238
2022-07-27T12:59:31.133Z,1911.16625
2022-07-27T13:04:32.756Z,1864.4888
2022-07-27T13:10:02.249Z,1852.5014
2022-07-27T13:15:05.570Z,1831.2382
2022-07-27T13:20:07.258Z,1792.842
2022-07-27T13:25:16.027Z,1699.3578
2022-07-27T13:30:18.514Z,1705.02245
2022-07-27T13:35:20.256Z,1581.4043
2022-07-27T13:40:21.666Z,1290.84125
2022-07-27T13:45:23.192Z,866.40315
2022-07-27T13:50:24.734Z,900.74515
2022-07-27T13:55:28.411Z,1376.23605
2022-07-27T14:00:30.101Z,1407.8076
2022-07-27T14:05:32.194Z,1227.7686
2022-07-27T14:10:36.346Z,1010.0712
2022-07-27T14:15:54.570Z,1147.15975
2022-07-27T14:20:57.707Z,990.76835
2022-07-27T14:25:59.726Z,875.13485
2022-07-27T14:31:01.402Z,711.77235
2022-07-27T14:36:03.619Z,610.6344
2022-07-27T14:41:05.084Z,472.593
2022-07-27T14:46:06.581Z,358.93145
2022-07-27T14:51:08.051Z,304.5261
2022-07-27T14:56:10.105Z,254.5837
2022-07-27T15:01:11.783Z,210.3764
2022-07-27T15:06:14.097Z,167.1655
2022-07-27T15:11:15.571Z,156.59485
2022-07-27T15:16:17.065Z,113.53225
2022-07-27T15:21:18.682Z,104.2356
2022-07-27T15:26:20.168Z,66.079
2022-07-27T15:31:22.055Z,45.8845
2022-07-27T15:36:33.402Z,30.28225
2022-07-27T15:41:37.065Z,14.4404
2022-07-27T15:46:38.520Z,4.4443
2022-07-27T15:51:40.133Z,2.6073
2022-07-27T15:56:41.676Z,0.88885
2022-07-27T16:01:43.164Z,1.16185
2022-07-27T16:06:44.958Z,0.88715
2022-07-27T16:11:46.414Z,0.88715
2022-07-27T16:16:47.987Z,0.88715
2022-07-27T16:21:54.873Z,0.88715
2022-07-27T16:26:57.411Z,0
2022-07-27T16:31:59.100Z,0
2022-07-27T16:37:00.856Z,0
2022-07-27T16:42:02.470Z,0
2022-07-27T16:47:04.059Z,0.88715
2022-07-27T16:52:06.736Z,0
2022-07-27T16:57:08.655Z,0
2022-07-27T17:02:10.299Z,0
2022-07-27T17:07:12.308Z,0
2022-07-27T17:12:17.614Z,0
2022-07-27T17:17:20.597Z,0
2022-07-27T17:22:22.199Z,0
2022-07-27T17:27:23.698Z,0
2022-07-27T17:32:25.267Z,0
2022-07-27T17:37:38.586Z,0
2022-07-27T17:42:57.937Z,0.88715
2022-07-27T17:47:59.403Z,0
2022-07-27T17:53:00.979Z,0
2022-07-27T17:58:02.375Z,0.88715
2022-07-27T18:03:03.965Z,0.88715
2022-07-27T18:08:05.825Z,0
2022-07-27T18:13:07.270Z,0
2022-07-27T18:18:08.747Z,0.88715
2022-07-27T18:23:10.222Z,0
2022-07-27T18:28:11.727Z,0
2022-07-27T18:33:13.308Z,0.88715
2022-07-27T18:38:15.020Z,0
2022-07-27T18:43:18.510Z,0
2022-07-27T18:48:19.973Z,0
2022-07-27T18:53:21.533Z,0
2022-07-27T18:58:23.007Z,0
2022-07-27T19:03:24.838Z,0
2022-07-27T19:08:29.746Z,0
2022-07-27T19:13:31.271Z,0
2022-07-27T19:18:32.846Z,0
2022-07-27T19:23:34.413Z,0.88715
2022-07-27T19:28:35.855Z,0
2022-07-27T19:33:37.395Z,0
2022-07-27T19:38:39.122Z,0
2022-07-27T19:43:40.822Z,0.88715
2022-07-27T19:48:42.895Z,0
2022-07-27T19:53:44.720Z,0
2022-07-27T19:58:46.201Z,0
2022-07-27T20:03:52.611Z,0
2022-07-27T20:08:56.701Z,0.88715
2022-07-27T20:13:58.242Z,0.88715
2022-07-27T20:18:59.902Z,0
2022-07-27T20:24:01.528Z,0
2022-07-27T20:29:03.027Z,0
2022-07-27T20:34:04.596Z,0.88715
2022-07-27T20:39:07.328Z,0
2022-07-27T20:44:09.073Z,0
2022-07-27T20:49:10.923Z,0
2022-07-27T20:54:12.696Z,0
2022-07-27T20:59:16.659Z,0
2022-07-27T21:04:18.636Z,0
2022-07-27T21:09:20.376Z,0.88715
2022-07-27T21:14:21.924Z,0.88715
2022-07-27T21:19:23.369Z,0
2022-07-27T21:24:24.981Z,0
2022-07-27T21:29:26.942Z,0.88715
2022-07-27T21:34:33.314Z,0.88715
2022-07-27T21:39:35.090Z,0
2022-07-27T21:44:36.496Z,0.88715
2022-07-27T21:49:38.148Z,0
2022-07-27T21:54:39.812Z,0
2022-07-27T21:59:41.302Z,0.88715
2022-07-27T22:04:42.748Z,0
2022-07-27T22:09:44.517Z,0
2022-07-27T22:14:45.951Z,0
2022-07-27T22:19:47.394Z,0
2022-07-27T22:24:48.931Z,0
2022-07-27T22:29:50.329Z,0
2022-07-27T22:34:51.864Z,0
2022-07-27T22:39:55.929Z,0.88715
2022-07-27T22:44:57.393Z,0.88715
2022-07-27T22:49:58.853Z,0
2022-07-27T22:55:00.320Z,0
2022-07-27T23:00:01.928Z,0.88715
2022-07-27T23:05:03.418Z,0
2022-07-27T23:10:05.102Z,0
2022-07-27T23:15:06.545Z,0
2022-07-27T23:20:08.122Z,0
2022-07-27T23:25:09.878Z,0
2022-07-27T23:30:16.302Z,0
2022-07-27T23:35:17.776Z,0
2022-07-27T23:40:19.506Z,0
2022-07-27T23:45:21.197Z,0
2022-07-27T23:50:22.690Z,0
2022-07-27T23:55:24.188Z,0.88715
